Time;durP1;ratioP1;P1;durP2;ratioP2;P2;SDS_P1;SDS_P2;PMS_P1;PMS_P2;Temp;Humidity;BMP_temperature;BMP_pressure;BME280_temperature;BME280_humidity;BME280_pressure;Samples;Min_cycle;Max_cycle;Signal;HPM_P1;HPM_P2
2023/04/19 00:00:13;;;;;;;30.90;19.10;;;;;;;10.14;91.95;98808.93;105069;1266;97919;-67
2023/04/19 00:02:41;;;;;;;31.60;19.70;;;;;;;10.09;92.11;98806.80;105144;1256;98002;-66
2023/04/19 00:05:10;;;;;;;32.40;19.00;;;;;;;10.05;92.16;98806.59;105269;1253;98834;-67
2023/04/19 00:07:38;;;;;;;31.20;19.20;;;;;;;10.03;92.33;98807.50;105293;1257;107097;-66
2023/04/19 00:10:06;;;;;;;30.30;19.20;;;;;;;10.03;92.40;98802.70;105283;1252;97958;-66
2023/04/19 00:12:33;;;;;;;32.20;19.60;;;;;;;10.06;92.65;98800.67;105293;1256;98535;-67
2023/04/19 00:15:00;;;;;;;27.70;18.10;;;;;;;10.05;92.52;98799.36;105244;1256;99189;-67
2023/04/19 00:17:27;;;;;;;28.40;18.40;;;;;;;10.04;92.60;98797.98;105178;1260;98014;-66
2023/04/19 00:19:55;;;;;;;26.40;17.10;;;;;;;10.02;92.59;98790.45;105264;1256;97926;-68
2023/04/19 00:22:22;;;;;;;28.60;17.80;;;;;;;9.99;92.76;98790.08;105213;1256;99100;-67
2023/04/19 00:24:49;;;;;;;38.70;21.00;;;;;;;10.00;92.81;98785.73;105240;1254;98054;-67
2023/04/19 00:27:16;;;;;;;29.70;20.10;;;;;;;10.02;92.82;98783.72;105252;1256;97884;-66
2023/04/19 00:29:43;;;;;;;33.70;21.00;;;;;;;10.01;92.89;98778.88;105234;1256;98579;-67
2023/04/19 00:32:10;;;;;;;30.20;19.50;;;;;;;10.00;92.86;98775.70;105233;1268;97952;-66
2023/04/19 00:34:37;;;;;;;30.50;18.60;;;;;;;9.97;92.86;98769.14;105234;1254;97904;-67
2023/04/19 00:37:04;;;;;;;30.60;18.40;;;;;;;9.95;93.15;98769.24;105140;1256;98103;-67
2023/04/19 00:39:31;;;;;;;28.20;16.60;;;;;;;9.95;93.20;98767.21;105126;1256;99150;-66
2023/04/19 00:41:58;;;;;;;26.50;16.40;;;;;;;9.95;93.26;98767.01;105154;1269;98776;-67
2023/04/19 00:44:26;;;;;;;29.30;15.90;;;;;;;9.94;93.12;98759.73;105126;1256;99205;-67
2023/04/19 00:46:54;;;;;;;24.10;15.80;;;;;;;9.95;93.16;98761.87;105272;1253;97959;-67
2023/04/19 00:49:23;;;;;;;25.80;15.10;;;;;;;9.96;93.25;98753.95;105305;1256;111276;-66
2023/04/19 00:51:51;;;;;;;22.00;14.90;;;;;;;9.96;93.16;98754.83;105299;1258;99006;-67
2023/04/19 00:54:18;;;;;;;23.80;14.90;;;;;;;9.97;93.45;98756.67;105236;1256;107805;-66
2023/04/19 00:56:46;;;;;;;22.70;14.40;;;;;;;10.01;93.49;98755.81;105237;1271;97970;-66
2023/04/19 00:59:16;;;;;;;24.20;14.80;;;;;;;10.01;93.69;98749.80;105246;1256;98408;-65
2023/04/19 01:01:43;;;;;;;22.00;14.30;;;;;;;10.06;94.06;98750.39;104640;1263;112253;-65
2023/04/19 01:04:11;;;;;;;24.40;14.20;;;;;;;10.09;93.60;98750.87;104607;1264;97930;-66
2023/04/19 01:06:40;;;;;;;22.80;14.00;;;;;;;10.09;93.32;98745.84;104643;1259;108606;-66
2023/04/19 01:09:08;;;;;;;23.80;14.30;;;;;;;10.08;93.15;98745.86;104672;1265;98000;-66
2023/04/19 01:11:35;;;;;;;21.10;13.70;;;;;;;10.07;93.68;98738.77;104732;1268;99315;-66
2023/04/19 01:14:02;;;;;;;24.90;15.10;;;;;;;10.07;93.37;98736.91;104636;1267;99131;-66
2023/04/19 01:16:29;;;;;;;27.00;15.60;;;;;;;9.98;93.25;98731.40;104649;1281;99181;-66
2023/04/19 01:18:56;;;;;;;25.10;15.30;;;;;;;9.93;93.34;98731.58;104685;1274;98074;-66
2023/04/19 01:21:23;;;;;;;25.00;16.10;;;;;;;9.94;93.75;98724.33;105229;1253;99177;-65
2023/04/19 01:23:51;;;;;;;26.10;16.70;;;;;;;9.94;93.42;98718.68;105251;1275;97909;-65
2023/04/19 01:26:18;;;;;;;27.30;17.50;;;;;;;9.90;93.48;98715.81;105124;1256;98007;-64
2023/04/19 01:28:45;;;;;;;27.80;18.90;;;;;;;9.92;93.93;98716.91;105139;1256;98997;-66
2023/04/19 01:31:12;;;;;;;28.00;16.30;;;;;;;9.95;94.00;98714.93;105262;1264;98011;-66
2023/04/19 01:33:39;;;;;;;26.90;14.70;;;;;;;9.96;93.49;98713.86;105279;1258;97958;-65
2023/04/19 01:36:07;;;;;;;24.80;14.70;;;;;;;9.97;93.69;98709.36;105249;1260;97964;-66
2023/04/19 01:38:34;;;;;;;21.70;14.30;;;;;;;9.96;93.75;98707.85;105191;1254;99245;-65
2023/04/19 01:41:02;;;;;;;21.30;13.90;;;;;;;9.96;93.83;98699.53;105209;1268;108626;-66
2023/04/19 01:43:29;;;;;;;21.20;13.70;;;;;;;9.95;93.82;98700.91;105169;1257;97896;-66
2023/04/19 01:45:56;;;;;;;23.40;14.40;;;;;;;9.95;93.83;98694.14;105261;1256;97890;-64
2023/04/19 01:48:23;;;;;;;25.70;14.80;;;;;;;9.97;94.00;98692.29;105209;1256;97889;-66
2023/04/19 01:50:50;;;;;;;22.90;15.20;;;;;;;9.91;93.46;98688.09;105224;1275;98814;-65
2023/04/19 01:53:17;;;;;;;26.30;15.20;;;;;;;9.90;94.05;98688.59;105180;1257;97948;-65
2023/04/19 01:55:45;;;;;;;24.40;15.90;;;;;;;9.88;93.84;98683.27;105118;1267;97906;-65
2023/04/19 01:58:12;;;;;;;23.10;14.80;;;;;;;9.88;93.92;98681.52;104982;1269;97966;-66
2023/04/19 02:00:39;;;;;;;24.60;15.20;;;;;;;9.86;93.52;98684.59;105015;1256;99212;-66
2023/04/19 02:03:06;;;;;;;25.50;15.50;;;;;;;9.83;93.50;98684.77;105115;1269;97970;-65
2023/04/19 02:05:34;;;;;;;25.70;15.10;;;;;;;9.78;93.37;98687.50;105143;1253;97940;-66
2023/04/19 02:08:02;;;;;;;26.30;16.20;;;;;;;9.75;93.47;98680.29;105061;1267;98431;-70
2023/04/19 02:10:29;;;;;;;24.90;15.70;;;;;;;9.71;93.59;98675.77;105270;1256;97894;-67
2023/04/19 02:12:56;;;;;;;24.40;15.10;;;;;;;9.73;93.64;98672.98;105100;1254;97925;-66
2023/04/19 02:15:23;;;;;;;24.50;15.10;;;;;;;9.71;93.42;98669.27;105139;1253;98024;-66
2023/04/19 02:17:51;;;;;;;25.10;15.50;;;;;;;9.71;93.72;98665.64;105224;1275;99182;-66
2023/04/19 02:20:18;;;;;;;22.50;14.30;;;;;;;9.70;93.67;98664.14;105285;1256;97964;-66
2023/04/19 02:22:46;;;;;;;24.80;15.10;;;;;;;9.71;94.04;98661.77;105284;1256;97967;-66
2023/04/19 02:25:15;;;;;;;25.10;14.20;;;;;;;9.70;93.65;98654.89;105296;1256;99024;-66
2023/04/19 02:27:42;;;;;;;26.40;15.40;;;;;;;9.65;93.73;98648.03;105239;1260;98854;-66
2023/04/19 02:30:10;;;;;;;26.20;15.80;;;;;;;9.64;94.01;98639.52;105250;1256;97972;-66
2023/04/19 02:32:37;;;;;;;25.70;15.30;;;;;;;9.64;93.72;98632.86;105328;1253;97916;-66
2023/04/19 02:35:05;;;;;;;33.40;17.70;;;;;;;9.56;93.60;98631.60;105023;1272;97950;-65
2023/04/19 02:37:32;;;;;;;40.30;19.30;;;;;;;9.44;93.74;98626.01;105262;1253;97985;-65
2023/04/19 02:39:59;;;;;;;46.20;22.10;;;;;;;9.38;93.93;98625.38;105167;1267;99215;-65
2023/04/19 02:42:26;;;;;;;46.60;23.20;;;;;;;9.32;94.28;98626.27;105224;1258;97973;-65
2023/04/19 02:44:53;;;;;;;51.90;23.80;;;;;;;9.28;94.57;98626.46;105178;1258;97961;-65
2023/04/19 02:47:20;;;;;;;41.00;20.30;;;;;;;9.24;94.64;98630.26;105228;1256;99211;-66
2023/04/19 02:49:48;;;;;;;37.00;19.00;;;;;;;9.27;94.75;98626.43;105234;1254;97957;-66
2023/04/19 02:52:15;;;;;;;27.50;15.20;;;;;;;9.29;94.33;98626.65;105275;1256;98785;-66
2023/04/19 02:54:42;;;;;;;24.00;14.50;;;;;;;9.27;94.16;98619.20;105013;1259;98002;-66
2023/04/19 02:57:09;;;;;;;26.30;13.80;;;;;;;9.25;94.07;98616.73;105220;1268;97936;-66
2023/04/19 02:59:37;;;;;;;21.40;12.80;;;;;;;9.23;94.15;98616.33;105269;1253;99238;-65
2023/04/19 03:02:04;;;;;;;20.50;12.60;;;;;;;9.25;94.18;98613.35;105262;1256;98739;-65
2023/04/19 03:04:31;;;;;;;22.70;14.10;;;;;;;9.27;94.36;98610.63;105094;1256;97986;-64
2023/04/19 03:06:58;;;;;;;24.60;14.20;;;;;;;9.31;94.39;98609.62;105129;1266;97922;-65
2023/04/19 03:09:25;;;;;;;22.80;14.30;;;;;;;9.25;93.92;98604.08;105170;1256;99209;-65
2023/04/19 03:11:53;;;;;;;23.40;14.90;;;;;;;9.21;94.31;98601.11;105235;1256;98684;-65
2023/04/19 03:14:20;;;;;;;23.80;15.00;;;;;;;9.22;94.65;98600.71;105031;1267;99047;-65
2023/04/19 03:16:47;;;;;;;23.50;14.40;;;;;;;9.22;94.47;98599.39;105204;1257;97884;-65
2023/04/19 03:19:15;;;;;;;23.50;13.70;;;;;;;9.23;94.62;98593.69;105175;1253;97951;-65
2023/04/19 03:21:42;;;;;;;23.70;13.70;;;;;;;9.24;94.65;98593.56;105281;1253;97881;-65
2023/04/19 03:24:09;;;;;;;24.40;13.20;;;;;;;9.23;94.43;98584.24;105270;1266;97979;-65
2023/04/19 03:26:36;;;;;;;25.50;13.90;;;;;;;9.19;94.46;98584.59;105046;1267;98761;-65
2023/04/19 03:29:03;;;;;;;32.10;15.80;;;;;;;9.15;94.34;98579.64;104992;1256;97974;-71
2023/04/19 03:31:31;;;;;;;31.40;16.50;;;;;;;9.06;94.52;98578.73;105147;1256;99147;-67
2023/04/19 03:33:57;;;;;;;22.90;12.70;;;;;;;8.98;94.39;98578.84;105329;1275;97913;-65
2023/04/19 03:36:25;;;;;;;25.10;12.60;;;;;;;8.93;94.43;98574.69;105219;1256;99161;-65
2023/04/19 03:38:53;;;;;;;32.60;13.60;;;;;;;8.85;94.65;98579.09;105240;1253;109419;-65
2023/04/19 03:41:23;;;;;;;22.80;12.90;;;;;;;8.85;94.66;98576.32;105285;1258;99212;-65
2023/04/19 03:43:51;;;;;;;25.40;14.10;;;;;;;8.86;94.58;98575.14;105264;1267;97865;-65
2023/04/19 03:46:18;;;;;;;20.30;11.20;;;;;;;8.82;94.42;98575.39;105250;1256;112555;-63
2023/04/19 03:48:46;;;;;;;22.30;11.80;;;;;;;8.78;94.48;98572.08;105253;1266;97915;-63
2023/04/19 03:51:17;;;;;;;23.60;11.90;;;;;;;8.74;94.67;98569.75;105260;1267;108571;-63
2023/04/19 03:53:44;;;;;;;22.40;13.00;;;;;;;8.70;94.84;98566.19;105267;1256;98492;-63
2023/04/19 03:56:11;;;;;;;27.80;12.80;;;;;;;8.70;95.12;98565.58;105213;1256;98019;-63
2023/04/19 03:58:38;;;;;;;21.90;12.70;;;;;;;8.72;95.05;98563.45;105244;1260;97897;-63
2023/04/19 04:01:17;;;;;;;20.90;12.30;;;;;;;8.76;94.95;98557.14;105275;1253;98296;-63
2023/04/19 04:03:44;;;;;;;31.90;19.30;;;;;;;8.82;94.63;98559.21;105264;1256;108676;-63
2023/04/19 04:06:11;;;;;;;37.80;24.20;;;;;;;8.84;94.74;98559.66;105214;1254;97897;-63
2023/04/19 04:08:38;;;;;;;56.20;33.10;;;;;;;8.91;94.94;98558.23;105224;1253;97941;-64
2023/04/19 04:11:05;;;;;;;33.90;22.80;;;;;;;8.95;94.78;98558.40;105191;1274;99212;-63
2023/04/19 04:13:32;;;;;;;26.20;17.90;;;;;;;9.01;94.82;98559.66;105131;1256;97832;-63
2023/04/19 04:15:59;;;;;;;29.70;19.30;;;;;;;9.04;94.66;98560.62;105158;1258;99176;-63
2023/04/19 04:18:27;;;;;;;36.80;22.00;;;;;;;9.08;94.62;98557.50;105144;1256;97913;-63
2023/04/19 04:20:54;;;;;;;26.90;16.80;;;;;;;9.10;94.25;98561.44;105017;1256;97881;-64
2023/04/19 04:23:21;;;;;;;21.40;13.60;;;;;;;9.11;94.35;98556.33;105139;1258;98752;-64
2023/04/19 04:26:03;;;;;;;20.90;13.30;;;;;;;9.15;94.37;98560.44;105194;1267;99112;-65
2023/04/19 04:28:30;;;;;;;21.00;13.30;;;;;;;9.15;94.19;98563.52;105041;1256;108111;-65
2023/04/19 04:30:59;;;;;;;20.70;12.30;;;;;;;9.15;94.43;98566.63;105056;1263;97915;-64
2023/04/19 04:33:27;;;;;;;19.70;12.00;;;;;;;9.12;94.44;98567.73;105268;1256;97907;-64
2023/04/19 04:35:55;;;;;;;18.60;10.80;;;;;;;9.09;94.54;98569.81;105118;1264;111649;-67
2023/04/19 04:38:22;;;;;;;20.50;12.50;;;;;;;8.99;94.69;98567.34;105027;1259;99224;-67
2023/04/19 04:40:55;;;;;;;21.10;12.90;;;;;;;8.86;95.11;98567.27;105222;1258;108674;-67
2023/04/19 04:43:24;;;;;;;21.90;12.40;;;;;;;8.74;95.78;98568.87;105269;1256;99213;-70
2023/04/19 04:45:54;;;;;;;20.10;12.30;;;;;;;8.62;96.02;98569.38;105281;1254;98391;-68
2023/04/19 04:48:21;;;;;;;22.40;11.60;;;;;;;8.53;96.53;98573.20;105163;1256;111540;-69
2023/04/19 04:50:48;;;;;;;29.10;15.20;;;;;;;8.43;97.01;98575.56;105034;1266;97899;-74
2023/04/19 04:53:15;;;;;;;49.90;25.40;;;;;;;8.32;98.15;98574.66;105143;1257;97986;-71
2023/04/19 04:55:42;;;;;;;68.30;30.90;;;;;;;8.20;98.70;98579.40;105161;1256;97903;-75
2023/04/19 04:58:10;;;;;;;63.80;28.90;;;;;;;8.09;99.71;98578.45;105283;1256;97976;-71
2023/04/19 05:00:36;;;;;;;81.70;37.80;;;;;;;8.05;99.94;98577.62;105180;1256;99208;-72
2023/04/19 05:03:03;;;;;;;124.10;48.90;;;;;;;7.99;100.00;98575.77;105241;1256;97903;-73
2023/04/19 05:05:31;;;;;;;64.40;26.30;;;;;;;7.95;100.00;98574.91;105188;1253;99282;-72
2023/04/19 05:07:58;;;;;;;105.60;39.80;;;;;;;7.92;100.00;98566.66;105281;1275;97890;-70
2023/04/19 05:10:25;;;;;;;104.40;36.40;;;;;;;7.95;100.00;98565.52;105302;1256;112024;-69
2023/04/19 05:12:52;;;;;;;239.70;67.30;;;;;;;7.93;100.00;98562.45;105294;1254;97903;-70
2023/04/19 05:15:19;;;;;;;503.00;150.60;;;;;;;7.86;100.00;98559.33;105178;1257;98796;-71
2023/04/19 05:17:46;;;;;;;243.00;65.80;;;;;;;7.83;100.00;98558.39;105200;1253;97909;-71
2023/04/19 05:20:13;;;;;;;155.90;40.60;;;;;;;7.78;100.00;98558.42;105206;1256;97897;-70
2023/04/19 05:22:41;;;;;;;139.10;34.80;;;;;;;7.77;100.00;98558.17;105165;1256;97876;-70
2023/04/19 05:25:09;;;;;;;39.90;15.00;;;;;;;7.73;100.00;98558.77;105189;1256;97980;-70
2023/04/19 05:27:36;;;;;;;55.40;17.30;;;;;;;7.77;100.00;98558.05;105230;1258;97940;-70
2023/04/19 05:30:05;;;;;;;26.40;11.30;;;;;;;7.80;100.00;98557.41;105242;1266;97983;-70
2023/04/19 05:32:32;;;;;;;35.30;14.10;;;;;;;7.89;100.00;98556.63;104998;1258;99084;-70
2023/04/19 05:34:59;;;;;;;19.60;10.60;;;;;;;7.96;100.00;98555.56;105277;1266;97874;-69
2023/04/19 05:37:26;;;;;;;29.70;12.40;;;;;;;8.03;100.00;98555.98;105161;1256;97896;-69
2023/04/19 05:39:53;;;;;;;21.60;10.70;;;;;;;8.07;100.00;98556.64;105192;1264;97890;-69
2023/04/19 05:42:20;;;;;;;14.30;9.10;;;;;;;8.12;100.00;98553.45;105233;1256;97985;-69
2023/04/19 05:44:47;;;;;;;17.90;9.40;;;;;;;8.16;100.00;98555.55;105204;1256;98380;-69
2023/04/19 05:47:16;;;;;;;32.90;13.80;;;;;;;8.20;100.00;98555.29;105225;1254;97877;-69
2023/04/19 05:49:43;;;;;;;23.30;11.60;;;;;;;8.12;100.00;98554.54;105217;1256;98818;-69
2023/04/19 05:52:10;;;;;;;26.70;12.40;;;;;;;8.12;100.00;98553.33;105307;1269;98006;-69
2023/04/19 05:54:37;;;;;;;17.00;10.20;;;;;;;8.19;100.00;98552.07;105213;1256;97812;-70
2023/04/19 05:57:04;;;;;;;20.10;10.80;;;;;;;8.24;100.00;98550.34;105158;1256;98256;-69
2023/04/19 05:59:31;;;;;;;24.40;12.40;;;;;;;8.32;100.00;98550.73;105264;1266;97889;-69
2023/04/19 06:01:59;;;;;;;21.30;10.70;;;;;;;8.30;100.00;98545.15;105244;1256;108130;-69
2023/04/19 06:04:27;;;;;;;21.20;10.40;;;;;;;8.24;100.00;98551.10;105267;1256;97906;-69
2023/04/19 06:06:55;;;;;;;17.20;10.10;;;;;;;8.26;100.00;98549.53;105281;1270;99471;-69
2023/04/19 06:09:22;;;;;;;20.30;11.20;;;;;;;8.26;100.00;98547.88;105279;1264;112199;-68
2023/04/19 06:11:49;;;;;;;19.00;10.20;;;;;;;8.24;100.00;98548.21;105081;1258;98685;-69
2023/04/19 06:14:17;;;;;;;17.10;11.30;;;;;;;8.19;100.00;98548.58;105201;1254;106530;-71
2023/04/19 06:16:45;;;;;;;20.40;11.70;;;;;;;8.22;100.00;98547.86;104930;1254;97983;-70
2023/04/19 06:19:12;;;;;;;16.80;11.40;;;;;;;8.22;100.00;98546.50;105269;1253;98065;-69
2023/04/19 06:21:39;;;;;;;17.90;11.20;;;;;;;8.24;100.00;98546.14;105186;1257;99192;-69
2023/04/19 06:24:06;;;;;;;20.00;12.00;;;;;;;8.26;100.00;98544.67;105138;1256;98003;-68
2023/04/19 06:26:34;;;;;;;14.80;9.70;;;;;;;8.26;100.00;98547.63;105033;1256;97994;-70
2023/04/19 06:29:00;;;;;;;16.00;10.20;;;;;;;8.23;100.00;98547.21;105134;1256;99317;-72
2023/04/19 06:31:28;;;;;;;15.50;10.20;;;;;;;8.23;100.00;98551.23;104915;1253;97916;-72
2023/04/19 06:33:55;;;;;;;27.60;15.10;;;;;;;8.21;100.00;98548.85;105043;1257;98044;-72
2023/04/19 06:36:21;;;;;;;26.70;14.90;;;;;;;8.21;100.00;98548.77;105162;1256;98818;-72
2023/04/19 06:38:49;;;;;;;20.00;12.10;;;;;;;8.21;100.00;98551.16;105022;1261;97941;-72
2023/04/19 06:41:16;;;;;;;14.70;10.00;;;;;;;8.16;100.00;98555.66;105157;1256;98360;-72
2023/04/19 06:43:43;;;;;;;17.90;12.30;;;;;;;8.15;100.00;98555.35;105111;1256;112251;-72
2023/04/19 06:46:12;;;;;;;22.30;12.00;;;;;;;8.14;100.00;98557.07;105136;1265;97909;-72
2023/04/19 06:48:40;;;;;;;21.70;12.90;;;;;;;8.05;100.00;98558.75;105296;1256;108694;-74
2023/04/19 06:51:07;;;;;;;17.20;12.00;;;;;;;7.93;100.00;98552.89;106388;1256;97897;-73
2023/04/19 06:53:34;;;;;;;12.80;7.50;;;;;;;7.81;100.00;98550.52;105221;1253;98244;-74
2023/04/19 06:56:05;;;;;;;18.00;10.40;;;;;;;7.67;100.00;98553.09;105131;1258;97944;-74
2023/04/19 06:58:32;;;;;;;24.30;13.00;;;;;;;7.58;99.62;98561.29;105035;1266;282803;-73
2023/04/19 07:01:03;;;;;;;18.90;11.20;;;;;;;7.55;99.70;98565.99;105310;1257;108500;-72
2023/04/19 07:03:30;;;;;;;14.50;7.80;;;;;;;7.46;99.81;98568.23;105175;1253;99122;-73
2023/04/19 07:05:58;;;;;;;14.70;8.60;;;;;;;7.42;99.80;98567.38;105287;1256;98687;-74
2023/04/19 07:08:26;;;;;;;17.60;9.60;;;;;;;7.38;99.93;98568.34;105196;1264;97883;-74
2023/04/19 07:11:08;;;;;;;14.40;9.10;;;;;;;7.34;99.93;98571.73;105271;1258;99078;-74
2023/04/19 07:13:35;;;;;;;16.90;10.60;;;;;;;7.35;99.97;98570.47;105309;1258;99263;-73
2023/04/19 07:16:06;;;;;;;19.60;9.80;;;;;;;7.38;99.95;98569.43;105101;1275;98050;-74
2023/04/19 07:18:33;;;;;;;14.10;7.10;;;;;;;7.35;99.90;98567.63;105093;1253;98445;-73
2023/04/19 07:21:00;;;;;;;17.70;9.70;;;;;;;7.32;99.77;98566.96;105138;1267;99216;-73
2023/04/19 07:23:27;;;;;;;12.80;8.30;;;;;;;7.32;99.63;98568.11;105196;1256;98075;-73
2023/04/19 07:25:53;;;;;;;18.20;10.10;;;;;;;7.31;99.58;98567.64;105256;1256;97917;-73
2023/04/19 07:28:20;;;;;;;11.00;7.40;;;;;;;7.32;99.45;98571.11;105167;1257;98008;-74
2023/04/19 07:30:47;;;;;;;15.40;8.50;;;;;;;7.29;99.38;98573.77;105270;1256;97975;-73
2023/04/19 07:33:14;;;;;;;20.00;10.20;;;;;;;7.30;99.46;98571.45;105267;1256;99238;-73
2023/04/19 07:35:41;;;;;;;14.80;8.20;;;;;;;7.28;98.88;98569.46;105119;1267;98001;-75
2023/04/19 07:38:08;;;;;;;84.20;33.70;;;;;;;7.26;99.33;98571.03;105201;1266;98801;-74
2023/04/19 07:40:35;;;;;;;28.80;15.10;;;;;;;7.31;99.83;98579.03;105226;1253;98002;-79
2023/04/19 07:43:02;;;;;;;17.40;10.20;;;;;;;7.35;99.68;98578.36;105314;1263;110726;-74
2023/04/19 07:45:30;;;;;;;16.90;9.40;;;;;;;7.38;99.92;98583.73;105287;1275;98662;-74
2023/04/19 07:47:57;;;;;;;16.30;9.30;;;;;;;7.42;99.74;98579.86;105201;1256;97975;-74
2023/04/19 07:50:25;;;;;;;18.20;9.50;;;;;;;7.47;99.66;98578.04;105246;1256;99203;-74
2023/04/19 07:52:53;;;;;;;13.40;6.40;;;;;;;7.49;98.85;98578.27;105288;1258;98955;-74
2023/04/19 07:55:20;;;;;;;10.20;5.40;;;;;;;7.54;98.81;98577.01;105293;1264;97909;-72
2023/04/19 07:57:48;;;;;;;9.30;6.40;;;;;;;7.58;97.95;98576.46;106341;1266;97985;-73
2023/04/19 08:00:16;;;;;;;9.90;5.60;;;;;;;7.61;98.23;98577.02;105277;1256;97845;-72
2023/04/19 08:02:44;;;;;;;4.80;3.10;;;;;;;7.60;97.86;98576.21;105242;1256;97982;-73
2023/04/19 08:05:19;;;;;;;5.30;3.50;;;;;;;7.52;96.12;98572.30;105337;1256;98313;-72
2023/04/19 08:07:46;;;;;;;6.90;4.20;;;;;;;7.53;96.11;98573.75;105205;1256;112498;-72
2023/04/19 08:10:14;;;;;;;5.40;3.90;;;;;;;7.53;95.84;98574.13;104998;1266;97874;-72
2023/04/19 08:12:41;;;;;;;6.90;5.00;;;;;;;7.57;96.38;98576.86;105281;1257;97893;-72
2023/04/19 08:15:27;;;;;;;6.60;4.60;;;;;;;7.70;97.12;98576.65;105263;1257;97954;-72
2023/04/19 08:18:15;;;;;;;8.10;4.90;;;;;;;7.76;96.00;98572.09;105211;1257;98330;-72
2023/04/19 08:20:42;;;;;;;8.50;5.60;;;;;;;7.78;95.54;98574.08;105242;1256;97890;-72
2023/04/19 08:23:10;;;;;;;7.30;4.70;;;;;;;7.84;95.77;98569.07;105241;1258;97883;-73
2023/04/19 08:25:51;;;;;;;9.20;6.70;;;;;;;7.88;94.37;98568.20;105083;1275;109015;-72
2023/04/19 08:28:18;;;;;;;9.90;6.80;;;;;;;7.89;95.17;98565.08;105216;1257;97947;-72
2023/04/19 08:30:45;;;;;;;16.20;9.40;;;;;;;8.01;96.06;98566.79;105187;1257;97906;-73
2023/04/19 08:33:12;;;;;;;12.10;7.80;;;;;;;8.06;95.14;98566.30;105161;1275;99074;-73
2023/04/19 08:35:40;;;;;;;12.50;7.10;;;;;;;8.13;95.98;98567.46;105118;1259;97895;-73
2023/04/19 08:38:08;;;;;;;9.90;6.40;;;;;;;8.14;95.32;98565.30;105246;1256;97987;-72
2023/04/19 08:40:40;;;;;;;9.30;5.00;;;;;;;8.04;93.87;98570.23;105287;1256;97917;-73
2023/04/19 08:43:07;;;;;;;12.90;8.40;;;;;;;7.78;92.98;98572.77;105248;1257;98818;-73
2023/04/19 08:45:34;;;;;;;13.70;8.50;;;;;;;7.71;94.41;98571.47;105090;1261;97967;-73
2023/04/19 08:48:03;;;;;;;15.50;9.40;;;;;;;7.74;95.42;98574.14;105255;1257;98594;-73
2023/04/19 08:50:32;;;;;;;17.50;11.00;;;;;;;7.76;95.57;98568.98;105247;1256;107743;-74
2023/04/19 08:53:11;;;;;;;15.70;10.60;;;;;;;7.76;95.43;98567.61;105262;1265;97964;-74
2023/04/19 08:55:53;;;;;;;13.20;7.80;;;;;;;7.82;95.64;98567.14;105242;1272;98693;-73
2023/04/19 08:58:40;;;;;;;7.60;5.60;;;;;;;7.97;96.16;98566.31;105166;1266;113516;-75
2023/04/19 09:01:26;;;;;;;9.30;6.00;;;;;;;8.14;96.31;98565.65;105111;1275;99351;-76
2023/04/19 09:04:05;;;;;;;13.20;8.10;;;;;;;8.26;95.89;98567.23;105127;1258;108546;-73
2023/04/19 09:06:53;;;;;;;10.20;7.30;;;;;;;8.33;95.10;98564.98;105283;1256;97876;-73
2023/04/19 09:09:26;;;;;;;10.80;7.30;;;;;;;8.40;94.88;98569.44;105327;1267;97977;-73
2023/04/19 09:11:57;;;;;;;11.60;7.50;;;;;;;8.48;95.93;98569.52;105346;1266;111242;-73
2023/04/19 09:14:26;;;;;;;12.00;7.80;;;;;;;8.58;95.92;98572.96;105290;1266;98795;-73
2023/04/19 09:17:12;;;;;;;17.00;11.00;;;;;;;8.60;95.24;98569.20;105298;1269;106809;-74
2023/04/19 09:19:46;;;;;;;12.70;8.20;;;;;;;8.56;93.51;98572.45;105249;1254;97915;-73
2023/04/19 09:22:13;;;;;;;15.70;10.10;;;;;;;8.41;92.93;98569.80;105319;1259;99549;-74
2023/04/19 09:24:41;;;;;;;14.30;9.70;;;;;;;8.45;93.89;98570.23;105333;1258;111859;-74
2023/04/19 09:27:11;;;;;;;16.60;10.70;;;;;;;8.41;93.03;98570.73;105312;1257;97892;-74
2023/04/19 09:29:38;;;;;;;15.00;10.10;;;;;;;8.40;93.08;98572.88;105053;1257;99244;-74
2023/04/19 09:32:05;;;;;;;16.70;11.20;;;;;;;8.33;92.42;98575.13;105195;1256;97878;-74
2023/04/19 09:34:32;;;;;;;13.70;8.30;;;;;;;8.28;91.94;98574.73;106252;1256;97967;-74
2023/04/19 09:37:12;;;;;;;19.00;11.60;;;;;;;7.99;89.86;98576.71;105214;1266;98133;-74
2023/04/19 09:39:58;;;;;;;13.40;7.40;;;;;;;7.90;91.56;98581.91;105321;1267;99192;-72
2023/04/19 09:42:45;;;;;;;17.90;10.50;;;;;;;7.70;90.46;98580.41;105216;1266;97905;-72
2023/04/19 09:45:16;;;;;;;18.60;11.20;;;;;;;7.57;91.69;98585.82;105037;1258;97939;-71
2023/04/19 09:48:00;;;;;;;16.30;8.30;;;;;;;7.49;92.08;98585.20;105266;1257;98016;-72
2023/04/19 09:50:27;;;;;;;23.90;13.20;;;;;;;7.43;92.29;98585.14;105220;1267;111840;-73
2023/04/19 09:52:58;;;;;;;24.00;12.30;;;;;;;7.52;93.26;98584.90;105178;1260;98246;-68
2023/04/19 09:55:26;;;;;;;20.10;11.20;;;;;;;7.60;92.54;98585.05;105173;1260;108586;-70
2023/04/19 09:57:55;;;;;;;22.20;13.20;;;;;;;7.58;91.93;98581.30;105312;1266;98772;-71
2023/04/19 10:00:23;;;;;;;20.00;12.10;;;;;;;7.65;92.57;98578.16;105250;1258;97890;-72
2023/04/19 10:02:56;;;;;;;21.70;13.10;;;;;;;7.70;92.31;98575.09;105287;1256;112219;-70
2023/04/19 10:05:24;;;;;;;22.20;13.10;;;;;;;7.77;92.51;98573.45;105264;1257;99334;-70
2023/04/19 10:07:55;;;;;;;21.40;12.30;;;;;;;7.79;92.25;98575.86;105221;1257;108517;-70
2023/04/19 10:10:27;;;;;;;18.80;11.60;;;;;;;7.79;91.81;98579.90;105183;1267;99238;-69
2023/04/19 10:13:11;;;;;;;23.20;13.40;;;;;;;7.77;91.52;98579.28;105187;1256;99103;-69
2023/04/19 10:15:47;;;;;;;19.60;11.50;;;;;;;7.75;91.77;98581.77;105147;1258;112202;-69
2023/04/19 10:18:23;;;;;;;25.60;14.40;;;;;;;7.76;92.30;98581.91;105091;1256;98744;-69
2023/04/19 10:21:05;;;;;;;26.20;15.30;;;;;;;7.80;91.88;98587.81;105131;1267;108522;-74
2023/04/19 10:23:33;;;;;;;29.70;15.60;;;;;;;7.77;91.53;98589.98;105502;1256;97942;-67
2023/04/19 10:26:00;;;;;;;22.90;13.60;;;;;;;7.71;91.65;98594.23;105239;1266;98329;-69
2023/04/19 10:28:32;;;;;;;27.10;14.90;;;;;;;7.67;91.97;98596.57;105217;1257;97956;-67
2023/04/19 10:31:02;;;;;;;25.50;14.30;;;;;;;7.62;91.55;98593.14;105257;1256;99208;-68
2023/04/19 10:33:36;;;;;;;24.20;14.60;;;;;;;7.56;92.16;98596.77;105185;1256;108541;-68
2023/04/19 10:36:08;;;;;;;21.10;12.90;;;;;;;7.54;91.82;98597.35;105115;1267;98032;-67
2023/04/19 10:38:50;;;;;;;24.00;13.10;;;;;;;7.47;91.39;98603.02;105215;1260;99094;-68
2023/04/19 10:41:18;;;;;;;23.00;13.40;;;;;;;7.36;91.32;98603.50;105123;1264;111871;-69
2023/04/19 10:43:54;;;;;;;24.00;12.90;;;;;;;7.32;91.57;98608.94;105217;1275;99215;-68
2023/04/19 10:46:21;;;;;;;25.70;14.80;;;;;;;7.28;92.34;98609.86;104968;1262;108242;-69
2023/04/19 10:48:58;;;;;;;29.40;15.90;;;;;;;7.28;92.15;98609.92;105096;1267;97944;-68
2023/04/19 10:51:34;;;;;;;29.10;15.40;;;;;;;7.28;92.14;98615.92;105079;1266;99221;-68
2023/04/19 10:54:26;;;;;;;25.60;14.30;;;;;;;7.29;91.92;98615.69;105045;1264;112153;-67
2023/04/19 10:57:09;;;;;;;24.30;14.70;;;;;;;7.23;91.90;98614.39;105268;1259;99288;-68
2023/04/19 10:59:41;;;;;;;21.90;12.70;;;;;;;7.20;92.17;98615.27;105145;1257;107466;-67
2023/04/19 11:02:21;;;;;;;23.00;13.50;;;;;;;7.15;92.04;98613.35;105238;1259;97906;-68
2023/04/19 11:04:49;;;;;;;;;;;;;;;7.13;91.99;98614.70;105338;1266;99185;-66
2023/04/19 11:07:17;;;;;;;24.30;13.80;;;;;;;7.07;91.60;98613.36;105098;1267;97889;-67
2023/04/19 11:09:45;;;;;;;30.10;14.50;;;;;;;7.02;91.87;98608.33;105272;1257;98474;-66
2023/04/19 11:12:18;;;;;;;28.50;14.10;;;;;;;7.02;91.77;98607.58;105281;1257;107672;-66
2023/04/19 11:14:46;;;;;;;30.10;15.50;;;;;;;7.00;91.85;98609.95;105269;1266;97897;-67
2023/04/19 11:17:18;;;;;;;52.70;18.20;;;;;;;7.01;92.57;98614.40;105267;1267;97893;-67
2023/04/19 11:19:55;;;;;;;25.90;14.40;;;;;;;7.00;92.23;98616.86;105284;1257;110943;-66
2023/04/19 11:22:31;;;;;;;33.30;12.90;;;;;;;6.98;92.31;98613.89;105303;1264;99272;-66
2023/04/19 11:25:11;;;;;;;85.30;25.40;;;;;;;6.84;91.45;98613.63;105260;1257;108565;-66